sensor_id;sensor_type;location;lat;lon;timestamp;P1;durP1;ratioP1;P2;durP2;ratioP2
18174;SDS011;9212;50.894;16.714;2023-09-19T00:00:30;1.98;;;1.48;;
18174;SDS011;9212;50.894;16.714;2023-09-19T00:02:59;3.92;;;1.40;;
18174;SDS011;9212;50.894;16.714;2023-09-19T00:05:28;4.03;;;1.50;;
18174;SDS011;9212;50.894;16.714;2023-09-19T00:07:57;1.65;;;1.55;;
18174;SDS011;9212;50.894;16.714;2023-09-19T00:10:24;1.17;;;1.17;;
18174;SDS011;9212;50.894;16.714;2023-09-19T00:12:52;6.50;;;1.63;;
18174;SDS011;9212;50.894;16.714;2023-09-19T00:15:20;4.10;;;1.73;;
18174;SDS011;9212;50.894;16.714;2023-09-19T00:17:48;3.55;;;1.30;;
18174;SDS011;9212;50.894;16.714;2023-09-19T00:20:17;2.60;;;1.73;;
18174;SDS011;9212;50.894;16.714;2023-09-19T00:22:48;3.95;;;1.25;;
18174;SDS011;9212;50.894;16.714;2023-09-19T00:25:15;2.40;;;1.70;;
18174;SDS011;9212;50.894;16.714;2023-09-19T00:27:43;2.28;;;1.33;;
18174;SDS011;9212;50.894;16.714;2023-09-19T00:30:13;2.35;;;1.50;;
18174;SDS011;9212;50.894;16.714;2023-09-19T00:32:45;2.78;;;1.65;;
18174;SDS011;9212;50.894;16.714;2023-09-19T00:35:12;3.15;;;1.88;;
18174;SDS011;9212;50.894;16.714;2023-09-19T00:37:40;2.97;;;1.70;;
18174;SDS011;9212;50.894;16.714;2023-09-19T00:40:09;5.25;;;1.48;;
18174;SDS011;9212;50.894;16.714;2023-09-19T00:42:37;3.95;;;1.60;;
18174;SDS011;9212;50.894;16.714;2023-09-19T00:45:06;6.15;;;1.83;;
18174;SDS011;9212;50.894;16.714;2023-09-19T00:47:34;4.47;;;2.17;;
18174;SDS011;9212;50.894;16.714;2023-09-19T00:50:02;7.03;;;2.20;;
18174;SDS011;9212;50.894;16.714;2023-09-19T00:52:32;2.88;;;1.52;;
18174;SDS011;9212;50.894;16.714;2023-09-19T00:55:01;5.70;;;2.08;;
18174;SDS011;9212;50.894;16.714;2023-09-19T00:57:30;4.35;;;1.83;;
18174;SDS011;9212;50.894;16.714;2023-09-19T00:59:58;2.92;;;1.85;;
18174;SDS011;9212;50.894;16.714;2023-09-19T01:02:30;4.03;;;1.80;;
18174;SDS011;9212;50.894;16.714;2023-09-19T01:04:58;4.15;;;1.60;;
18174;SDS011;9212;50.894;16.714;2023-09-19T01:07:26;3.50;;;2.00;;
18174;SDS011;9212;50.894;16.714;2023-09-19T01:09:55;3.28;;;1.95;;
18174;SDS011;9212;50.894;16.714;2023-09-19T01:12:26;2.83;;;1.90;;
18174;SDS011;9212;50.894;16.714;2023-09-19T01:15:10;5.28;;;1.92;;
18174;SDS011;9212;50.894;16.714;2023-09-19T01:17:44;5.55;;;2.20;;
18174;SDS011;9212;50.894;16.714;2023-09-19T01:20:21;2.75;;;1.95;;
18174;SDS011;9212;50.894;16.714;2023-09-19T01:23:02;5.93;;;1.88;;
18174;SDS011;9212;50.894;16.714;2023-09-19T01:25:51;4.00;;;1.60;;
18174;SDS011;9212;50.894;16.714;2023-09-19T01:28:42;6.35;;;2.00;;
18174;SDS011;9212;50.894;16.714;2023-09-19T01:31:21;4.57;;;1.98;;
18174;SDS011;9212;50.894;16.714;2023-09-19T01:33:56;6.00;;;2.65;;
18174;SDS011;9212;50.894;16.714;2023-09-19T01:36:25;8.25;;;1.60;;
18174;SDS011;9212;50.894;16.714;2023-09-19T01:38:52;4.53;;;2.13;;
18174;SDS011;9212;50.894;16.714;2023-09-19T01:41:23;6.85;;;2.05;;
18174;SDS011;9212;50.894;16.714;2023-09-19T01:43:55;4.65;;;1.75;;
18174;SDS011;9212;50.894;16.714;2023-09-19T01:46:29;3.28;;;1.63;;
18174;SDS011;9212;50.894;16.714;2023-09-19T01:49:04;5.40;;;1.85;;
18174;SDS011;9212;50.894;16.714;2023-09-19T01:51:33;5.75;;;1.77;;
18174;SDS011;9212;50.894;16.714;2023-09-19T01:54:04;4.07;;;1.88;;
18174;SDS011;9212;50.894;16.714;2023-09-19T01:56:37;4.82;;;1.92;;
18174;SDS011;9212;50.894;16.714;2023-09-19T01:59:13;2.58;;;1.98;;
18174;SDS011;9212;50.894;16.714;2023-09-19T02:01:44;1.85;;;1.38;;
18174;SDS011;9212;50.894;16.714;2023-09-19T02:04:12;3.90;;;1.98;;
18174;SDS011;9212;50.894;16.714;2023-09-19T02:06:39;3.42;;;1.77;;
18174;SDS011;9212;50.894;16.714;2023-09-19T02:09:07;4.03;;;1.70;;
18174;SDS011;9212;50.894;16.714;2023-09-19T02:11:35;7.05;;;1.52;;
18174;SDS011;9212;50.894;16.714;2023-09-19T02:14:03;3.35;;;1.20;;
18174;SDS011;9212;50.894;16.714;2023-09-19T02:16:33;1.90;;;1.33;;
18174;SDS011;9212;50.894;16.714;2023-09-19T02:19:02;3.83;;;1.10;;
18174;SDS011;9212;50.894;16.714;2023-09-19T02:21:31;2.63;;;1.20;;
18174;SDS011;9212;50.894;16.714;2023-09-19T02:23:58;1.27;;;1.17;;
18174;SDS011;9212;50.894;16.714;2023-09-19T02:26:25;2.22;;;1.40;;
18174;SDS011;9212;50.894;16.714;2023-09-19T02:28:52;3.53;;;1.20;;
18174;SDS011;9212;50.894;16.714;2023-09-19T02:31:20;2.13;;;1.33;;
18174;SDS011;9212;50.894;16.714;2023-09-19T02:33:47;1.98;;;1.10;;
18174;SDS011;9212;50.894;16.714;2023-09-19T02:36:16;3.17;;;1.35;;
18174;SDS011;9212;50.894;16.714;2023-09-19T02:38:44;4.50;;;1.10;;
18174;SDS011;9212;50.894;16.714;2023-09-19T02:41:11;4.30;;;1.17;;
18174;SDS011;9212;50.894;16.714;2023-09-19T02:43:38;2.92;;;1.60;;
18174;SDS011;9212;50.894;16.714;2023-09-19T02:46:05;3.88;;;1.45;;
18174;SDS011;9212;50.894;16.714;2023-09-19T02:48:33;2.67;;;1.17;;
18174;SDS011;9212;50.894;16.714;2023-09-19T02:51:01;5.90;;;1.45;;
18174;SDS011;9212;50.894;16.714;2023-09-19T02:53:30;4.88;;;1.60;;
18174;SDS011;9212;50.894;16.714;2023-09-19T02:55:57;1.63;;;1.48;;
18174;SDS011;9212;50.894;16.714;2023-09-19T02:58:24;5.95;;;1.45;;
18174;SDS011;9212;50.894;16.714;2023-09-19T03:00:53;2.38;;;1.40;;
18174;SDS011;9212;50.894;16.714;2023-09-19T03:03:20;2.60;;;1.45;;
18174;SDS011;9212;50.894;16.714;2023-09-19T03:05:48;2.10;;;1.25;;
18174;SDS011;9212;50.894;16.714;2023-09-19T03:08:16;3.00;;;1.95;;
18174;SDS011;9212;50.894;16.714;2023-09-19T03:10:47;3.60;;;1.63;;
18174;SDS011;9212;50.894;16.714;2023-09-19T03:13:14;3.75;;;1.92;;
18174;SDS011;9212;50.894;16.714;2023-09-19T03:15:41;2.50;;;1.60;;
18174;SDS011;9212;50.894;16.714;2023-09-19T03:18:11;3.42;;;1.70;;
18174;SDS011;9212;50.894;16.714;2023-09-19T03:20:39;2.47;;;1.58;;
18174;SDS011;9212;50.894;16.714;2023-09-19T03:23:06;3.63;;;1.80;;
18174;SDS011;9212;50.894;16.714;2023-09-19T03:25:33;7.75;;;2.42;;
18174;SDS011;9212;50.894;16.714;2023-09-19T03:28:02;5.43;;;1.90;;
18174;SDS011;9212;50.894;16.714;2023-09-19T03:30:31;2.42;;;1.90;;
18174;SDS011;9212;50.894;16.714;2023-09-19T03:32:59;5.13;;;2.40;;
18174;SDS011;9212;50.894;16.714;2023-09-19T03:35:26;3.08;;;2.17;;
18174;SDS011;9212;50.894;16.714;2023-09-19T03:37:53;2.30;;;2.10;;
18174;SDS011;9212;50.894;16.714;2023-09-19T03:40:20;4.43;;;2.30;;
18174;SDS011;9212;50.894;16.714;2023-09-19T03:42:48;2.80;;;2.33;;
18174;SDS011;9212;50.894;16.714;2023-09-19T03:45:17;5.15;;;2.17;;
18174;SDS011;9212;50.894;16.714;2023-09-19T03:47:44;2.50;;;2.30;;
18174;SDS011;9212;50.894;16.714;2023-09-19T03:50:12;3.35;;;2.25;;
18174;SDS011;9212;50.894;16.714;2023-09-19T03:52:42;3.95;;;2.58;;
18174;SDS011;9212;50.894;16.714;2023-09-19T03:55:09;4.70;;;2.42;;
18174;SDS011;9212;50.894;16.714;2023-09-19T03:57:36;5.22;;;2.38;;
18174;SDS011;9212;50.894;16.714;2023-09-19T04:00:04;5.68;;;2.55;;
18174;SDS011;9212;50.894;16.714;2023-09-19T04:02:37;3.72;;;2.33;;
18174;SDS011;9212;50.894;16.714;2023-09-19T04:05:05;3.20;;;2.50;;
18174;SDS011;9212;50.894;16.714;2023-09-19T04:07:32;4.25;;;2.70;;
18174;SDS011;9212;50.894;16.714;2023-09-19T04:09:59;2.72;;;2.53;;
18174;SDS011;9212;50.894;16.714;2023-09-19T04:12:27;6.80;;;2.70;;
18174;SDS011;9212;50.894;16.714;2023-09-19T04:14:54;3.70;;;2.20;;
18174;SDS011;9212;50.894;16.714;2023-09-19T04:17:21;4.47;;;2.15;;
18174;SDS011;9212;50.894;16.714;2023-09-19T04:19:51;4.78;;;2.63;;
18174;SDS011;9212;50.894;16.714;2023-09-19T04:22:18;4.10;;;2.08;;
18174;SDS011;9212;50.894;16.714;2023-09-19T04:24:46;4.30;;;2.20;;
18174;SDS011;9212;50.894;16.714;2023-09-19T04:27:13;2.00;;;1.90;;
18174;SDS011;9212;50.894;16.714;2023-09-19T04:29:40;2.05;;;1.42;;
18174;SDS011;9212;50.894;16.714;2023-09-19T04:32:08;1.98;;;1.70;;
18174;SDS011;9212;50.894;16.714;2023-09-19T04:34:35;1.70;;;1.60;;
18174;SDS011;9212;50.894;16.714;2023-09-19T04:37:04;1.50;;;1.40;;
18174;SDS011;9212;50.894;16.714;2023-09-19T04:39:31;3.15;;;1.73;;
18174;SDS011;9212;50.894;16.714;2023-09-19T04:41:59;2.40;;;1.40;;
18174;SDS011;9212;50.894;16.714;2023-09-19T04:44:26;2.63;;;1.70;;
18174;SDS011;9212;50.894;16.714;2023-09-19T04:46:54;3.10;;;1.50;;
18174;SDS011;9212;50.894;16.714;2023-09-19T04:49:22;4.90;;;1.73;;
18174;SDS011;9212;50.894;16.714;2023-09-19T04:51:49;2.63;;;1.65;;
18174;SDS011;9212;50.894;16.714;2023-09-19T04:54:18;1.88;;;1.42;;
18174;SDS011;9212;50.894;16.714;2023-09-19T04:56:45;4.00;;;1.58;;
18174;SDS011;9212;50.894;16.714;2023-09-19T04:59:12;3.40;;;1.80;;
18174;SDS011;9212;50.894;16.714;2023-09-19T05:01:40;2.95;;;1.33;;
18174;SDS011;9212;50.894;16.714;2023-09-19T05:04:07;1.77;;;1.63;;
18174;SDS011;9212;50.894;16.714;2023-09-19T05:06:34;2.30;;;1.70;;
18174;SDS011;9212;50.894;16.714;2023-09-19T05:09:01;3.35;;;1.60;;
18174;SDS011;9212;50.894;16.714;2023-09-19T05:11:31;4.05;;;1.73;;
18174;SDS011;9212;50.894;16.714;2023-09-19T05:13:59;1.60;;;1.50;;
18174;SDS011;9212;50.894;16.714;2023-09-19T05:16:28;2.42;;;1.50;;
18174;SDS011;9212;50.894;16.714;2023-09-19T05:18:56;1.85;;;1.48;;
18174;SDS011;9212;50.894;16.714;2023-09-19T05:21:25;3.60;;;1.50;;
18174;SDS011;9212;50.894;16.714;2023-09-19T05:23:53;2.70;;;1.60;;
18174;SDS011;9212;50.894;16.714;2023-09-19T05:26:21;1.75;;;1.55;;
18174;SDS011;9212;50.894;16.714;2023-09-19T05:28:49;6.15;;;1.58;;
18174;SDS011;9212;50.894;16.714;2023-09-19T05:31:17;2.00;;;1.80;;
18174;SDS011;9212;50.894;16.714;2023-09-19T05:33:45;2.22;;;1.80;;
18174;SDS011;9212;50.894;16.714;2023-09-19T05:36:12;4.43;;;2.00;;
18174;SDS011;9212;50.894;16.714;2023-09-19T05:38:41;2.63;;;2.13;;
18174;SDS011;9212;50.894;16.714;2023-09-19T05:41:09;2.00;;;1.83;;
18174;SDS011;9212;50.894;16.714;2023-09-19T05:43:38;1.48;;;1.35;;
18174;SDS011;9212;50.894;16.714;2023-09-19T05:46:07;4.47;;;2.10;;
18174;SDS011;9212;50.894;16.714;2023-09-19T05:48:34;1.70;;;1.60;;
18174;SDS011;9212;50.894;16.714;2023-09-19T05:51:03;2.80;;;1.85;;
18174;SDS011;9212;50.894;16.714;2023-09-19T05:53:31;6.07;;;2.22;;
18174;SDS011;9212;50.894;16.714;2023-09-19T05:55:58;3.67;;;2.20;;
18174;SDS011;9212;50.894;16.714;2023-09-19T05:58:26;5.53;;;1.60;;
18174;SDS011;9212;50.894;16.714;2023-09-19T06:00:53;1.92;;;1.73;;
18174;SDS011;9212;50.894;16.714;2023-09-19T06:03:22;2.90;;;2.05;;
18174;SDS011;9212;50.894;16.714;2023-09-19T06:05:49;1.73;;;1.52;;
18174;SDS011;9212;50.894;16.714;2023-09-19T06:08:18;2.05;;;1.88;;
18174;SDS011;9212;50.894;16.714;2023-09-19T06:10:45;2.40;;;1.77;;
18174;SDS011;9212;50.894;16.714;2023-09-19T06:13:14;2.60;;;2.00;;
18174;SDS011;9212;50.894;16.714;2023-09-19T06:15:41;1.70;;;1.52;;
18174;SDS011;9212;50.894;16.714;2023-09-19T06:18:10;2.75;;;2.25;;
18174;SDS011;9212;50.894;16.714;2023-09-19T06:20:41;2.90;;;2.05;;
18174;SDS011;9212;50.894;16.714;2023-09-19T06:23:09;4.22;;;2.00;;
18174;SDS011;9212;50.894;16.714;2023-09-19T06:25:36;3.70;;;2.10;;
18174;SDS011;9212;50.894;16.714;2023-09-19T06:28:04;2.70;;;2.20;;
18174;SDS011;9212;50.894;16.714;2023-09-19T06:30:33;2.97;;;2.40;;
18174;SDS011;9212;50.894;16.714;2023-09-19T06:33:00;3.47;;;2.10;;
18174;SDS011;9212;50.894;16.714;2023-09-19T06:35:28;3.92;;;2.13;;
18174;SDS011;9212;50.894;16.714;2023-09-19T06:38:01;4.03;;;1.95;;
18174;SDS011;9212;50.894;16.714;2023-09-19T06:40:29;2.75;;;2.15;;
18174;SDS011;9212;50.894;16.714;2023-09-19T06:42:57;6.78;;;1.98;;
18174;SDS011;9212;50.894;16.714;2023-09-19T06:45:27;2.78;;;1.83;;
18174;SDS011;9212;50.894;16.714;2023-09-19T06:47:54;4.60;;;2.03;;
18174;SDS011;9212;50.894;16.714;2023-09-19T06:50:23;3.83;;;1.92;;
18174;SDS011;9212;50.894;16.714;2023-09-19T06:52:50;2.53;;;2.20;;
18174;SDS011;9212;50.894;16.714;2023-09-19T06:55:20;1.92;;;1.73;;
18174;SDS011;9212;50.894;16.714;2023-09-19T06:57:50;3.42;;;2.33;;
18174;SDS011;9212;50.894;16.714;2023-09-19T07:00:19;8.07;;;2.40;;
18174;SDS011;9212;50.894;16.714;2023-09-19T07:02:54;2.50;;;1.95;;
18174;SDS011;9212;50.894;16.714;2023-09-19T07:05:22;4.25;;;2.33;;
18174;SDS011;9212;50.894;16.714;2023-09-19T07:07:49;3.72;;;2.05;;
18174;SDS011;9212;50.894;16.714;2023-09-19T07:10:16;3.47;;;2.55;;
18174;SDS011;9212;50.894;16.714;2023-09-19T07:12:46;2.63;;;2.00;;
18174;SDS011;9212;50.894;16.714;2023-09-19T07:15:13;6.10;;;2.17;;
18174;SDS011;9212;50.894;16.714;2023-09-19T07:17:40;2.55;;;1.70;;
18174;SDS011;9212;50.894;16.714;2023-09-19T07:20:08;4.50;;;2.40;;
18174;SDS011;9212;50.894;16.714;2023-09-19T07:22:41;4.82;;;1.95;;
18174;SDS011;9212;50.894;16.714;2023-09-19T07:25:08;2.53;;;2.05;;
18174;SDS011;9212;50.894;16.714;2023-09-19T07:27:35;3.40;;;2.17;;
18174;SDS011;9212;50.894;16.714;2023-09-19T07:30:04;2.60;;;2.40;;
18174;SDS011;9212;50.894;16.714;2023-09-19T07:32:33;3.03;;;2.67;;
18174;SDS011;9212;50.894;16.714;2023-09-19T07:35:01;3.20;;;2.50;;
18174;SDS011;9212;50.894;16.714;2023-09-19T07:37:29;3.25;;;2.20;;
18174;SDS011;9212;50.894;16.714;2023-09-19T07:39:58;6.60;;;2.30;;
18174;SDS011;9212;50.894;16.714;2023-09-19T07:42:25;3.55;;;2.20;;
18174;SDS011;9212;50.894;16.714;2023-09-19T07:44:52;3.83;;;2.05;;
18174;SDS011;9212;50.894;16.714;2023-09-19T07:47:21;7.75;;;1.98;;
18174;SDS011;9212;50.894;16.714;2023-09-19T07:49:48;4.53;;;2.25;;
18174;SDS011;9212;50.894;16.714;2023-09-19T07:52:15;3.95;;;2.47;;
18174;SDS011;9212;50.894;16.714;2023-09-19T07:54:44;3.58;;;1.90;;
18174;SDS011;9212;50.894;16.714;2023-09-19T07:57:12;2.03;;;1.55;;
18174;SDS011;9212;50.894;16.714;2023-09-19T07:59:40;1.70;;;1.60;;
18174;SDS011;9212;50.894;16.714;2023-09-19T08:02:08;3.08;;;1.75;;
18174;SDS011;9212;50.894;16.714;2023-09-19T08:04:42;2.33;;;1.80;;
18174;SDS011;9212;50.894;16.714;2023-09-19T08:07:10;2.25;;;1.50;;
18174;SDS011;9212;50.894;16.714;2023-09-19T08:09:38;4.78;;;1.75;;
18174;SDS011;9212;50.894;16.714;2023-09-19T08:12:05;2.95;;;1.52;;
18174;SDS011;9212;50.894;16.714;2023-09-19T08:14:33;2.42;;;1.83;;
18174;SDS011;9212;50.894;16.714;2023-09-19T08:17:00;2.15;;;1.27;;
18174;SDS011;9212;50.894;16.714;2023-09-19T08:19:27;3.03;;;1.70;;
18174;SDS011;9212;50.894;16.714;2023-09-19T08:21:58;1.48;;;1.40;;
18174;SDS011;9212;50.894;16.714;2023-09-19T08:24:26;5.15;;;1.65;;
18174;SDS011;9212;50.894;16.714;2023-09-19T08:26:53;3.47;;;1.45;;
18174;SDS011;9212;50.894;16.714;2023-09-19T08:29:21;3.13;;;1.40;;
18174;SDS011;9212;50.894;16.714;2023-09-19T08:31:53;6.20;;;1.58;;
18174;SDS011;9212;50.894;16.714;2023-09-19T08:34:21;3.50;;;1.77;;
18174;SDS011;9212;50.894;16.714;2023-09-19T08:36:48;1.92;;;1.52;;
18174;SDS011;9212;50.894;16.714;2023-09-19T08:39:19;1.77;;;1.40;;
18174;SDS011;9212;50.894;16.714;2023-09-19T08:41:46;2.92;;;1.60;;
18174;SDS011;9212;50.894;16.714;2023-09-19T08:44:13;3.00;;;1.45;;
18174;SDS011;9212;50.894;16.714;2023-09-19T08:46:41;2.97;;;1.10;;
18174;SDS011;9212;50.894;16.714;2023-09-19T08:49:12;1.67;;;1.58;;
18174;SDS011;9212;50.894;16.714;2023-09-19T08:51:51;5.75;;;1.73;;
18174;SDS011;9212;50.894;16.714;2023-09-19T08:54:28;8.38;;;1.70;;
18174;SDS011;9212;50.894;16.714;2023-09-19T08:57:05;1.58;;;1.40;;
18174;SDS011;9212;50.894;16.714;2023-09-19T08:59:37;3.10;;;1.38;;
18174;SDS011;9212;50.894;16.714;2023-09-19T09:02:08;2.53;;;1.40;;
18174;SDS011;9212;50.894;16.714;2023-09-19T09:04:38;4.70;;;1.90;;
18174;SDS011;9212;50.894;16.714;2023-09-19T09:07:09;2.22;;;1.85;;
18174;SDS011;9212;50.894;16.714;2023-09-19T09:09:39;3.45;;;1.70;;
18174;SDS011;9212;50.894;16.714;2023-09-19T09:12:08;4.90;;;1.67;;
18174;SDS011;9212;50.894;16.714;2023-09-19T09:14:38;4.43;;;1.65;;
18174;SDS011;9212;50.894;16.714;2023-09-19T09:17:06;7.28;;;2.53;;
18174;SDS011;9212;50.894;16.714;2023-09-19T09:19:34;3.72;;;1.85;;
18174;SDS011;9212;50.894;16.714;2023-09-19T09:22:08;7.03;;;1.83;;
18174;SDS011;9212;50.894;16.714;2023-09-19T09:24:36;5.60;;;1.38;;
18174;SDS011;9212;50.894;16.714;2023-09-19T09:27:06;8.23;;;1.58;;
18174;SDS011;9212;50.894;16.714;2023-09-19T09:29:42;1.50;;;1.40;;
18174;SDS011;9212;50.894;16.714;2023-09-19T09:32:18;3.10;;;1.25;;
18174;SDS011;9212;50.894;16.714;2023-09-19T09:34:47;7.72;;;1.85;;
18174;SDS011;9212;50.894;16.714;2023-09-19T09:37:16;2.75;;;1.50;;
18174;SDS011;9212;50.894;16.714;2023-09-19T09:39:49;3.30;;;2.03;;
18174;SDS011;9212;50.894;16.714;2023-09-19T09:42:33;6.13;;;1.55;;
18174;SDS011;9212;50.894;16.714;2023-09-19T09:45:13;2.42;;;1.48;;
18174;SDS011;9212;50.894;16.714;2023-09-19T09:47:43;5.00;;;2.30;;
18174;SDS011;9212;50.894;16.714;2023-09-19T09:50:23;2.75;;;1.75;;
18174;SDS011;9212;50.894;16.714;2023-09-19T09:53:02;2.40;;;1.80;;
18174;SDS011;9212;50.894;16.714;2023-09-19T09:55:39;7.75;;;2.17;;
18174;SDS011;9212;50.894;16.714;2023-09-19T09:58:26;5.20;;;1.98;;
18174;SDS011;9212;50.894;16.714;2023-09-19T10:00:56;3.92;;;2.00;;
18174;SDS011;9212;50.894;16.714;2023-09-19T10:03:31;6.93;;;2.17;;
18174;SDS011;9212;50.894;16.714;2023-09-19T10:06:04;4.10;;;2.20;;
18174;SDS011;9212;50.894;16.714;2023-09-19T10:08:57;4.25;;;1.92;;
18174;SDS011;9212;50.894;16.714;2023-09-19T10:11:37;7.25;;;1.73;;
18174;SDS011;9212;50.894;16.714;2023-09-19T10:14:09;5.22;;;1.65;;
18174;SDS011;9212;50.894;16.714;2023-09-19T10:16:39;1.63;;;1.52;;
18174;SDS011;9212;50.894;16.714;2023-09-19T10:19:10;5.97;;;1.80;;
18174;SDS011;9212;50.894;16.714;2023-09-19T10:21:41;3.80;;;1.25;;
18174;SDS011;9212;50.894;16.714;2023-09-19T10:24:11;1.38;;;1.25;;
18174;SDS011;9212;50.894;16.714;2023-09-19T10:26:38;1.42;;;1.15;;
18174;SDS011;9212;50.894;16.714;2023-09-19T10:29:09;2.78;;;1.70;;
18174;SDS011;9212;50.894;16.714;2023-09-19T10:31:39;7.10;;;1.58;;
18174;SDS011;9212;50.894;16.714;2023-09-19T10:34:06;11.07;;;2.05;;
18174;SDS011;9212;50.894;16.714;2023-09-19T10:36:35;4.13;;;1.42;;
18174;SDS011;9212;50.894;16.714;2023-09-19T10:39:03;7.35;;;1.52;;
18174;SDS011;9212;50.894;16.714;2023-09-19T10:41:34;9.02;;;2.17;;
18174;SDS011;9212;50.894;16.714;2023-09-19T10:44:03;9.20;;;2.22;;
18174;SDS011;9212;50.894;16.714;2023-09-19T10:46:32;15.65;;;1.80;;
18174;SDS011;9212;50.894;16.714;2023-09-19T10:48:59;2.72;;;1.63;;
18174;SDS011;9212;50.894;16.714;2023-09-19T10:51:28;12.38;;;1.63;;
18174;SDS011;9212;50.894;16.714;2023-09-19T10:53:59;5.05;;;1.60;;
18174;SDS011;9212;50.894;16.714;2023-09-19T10:56:32;1.65;;;1.45;;
18174;SDS011;9212;50.894;16.714;2023-09-19T10:59:06;3.08;;;1.10;;
18174;SDS011;9212;50.894;16.714;2023-09-19T11:01:43;2.67;;;1.58;;
18174;SDS011;9212;50.894;16.714;2023-09-19T11:04:22;6.88;;;1.60;;
18174;SDS011;9212;50.894;16.714;2023-09-19T11:06:59;4.28;;;1.23;;
18174;SDS011;9212;50.894;16.714;2023-09-19T11:09:43;8.75;;;1.27;;
18174;SDS011;9212;50.894;16.714;2023-09-19T11:21:38;2.22;;;1.27;;
18174;SDS011;9212;50.894;16.714;2023-09-19T11:24:30;4.25;;;1.30;;
18174;SDS011;9212;50.894;16.714;2023-09-19T11:29:56;1.95;;;0.98;;
18174;SDS011;9212;50.894;16.714;2023-09-19T11:35:59;2.50;;;1.35;;
18174;SDS011;9212;50.894;16.714;2023-09-19T11:41:36;5.93;;;1.45;;
18174;SDS011;9212;50.894;16.714;2023-09-19T11:47:00;4.50;;;1.27;;
18174;SDS011;9212;50.894;16.714;2023-09-19T11:49:29;8.20;;;1.30;;
18174;SDS011;9212;50.894;16.714;2023-09-19T11:51:59;3.00;;;1.40;;
18174;SDS011;9212;50.894;16.714;2023-09-19T11:54:29;2.97;;;1.10;;
18174;SDS011;9212;50.894;16.714;2023-09-19T11:56:57;4.15;;;1.08;;
18174;SDS011;9212;50.894;16.714;2023-09-19T11:59:25;7.20;;;1.50;;
18174;SDS011;9212;50.894;16.714;2023-09-19T12:01:54;1.00;;;0.90;;
18174;SDS011;9212;50.894;16.714;2023-09-19T12:04:36;1.20;;;1.10;;
18174;SDS011;9212;50.894;16.714;2023-09-19T12:07:06;3.97;;;1.35;;
18174;SDS011;9212;50.894;16.714;2023-09-19T12:09:37;8.38;;;1.27;;
18174;SDS011;9212;50.894;16.714;2023-09-19T12:12:06;9.05;;;1.42;;
18174;SDS011;9212;50.894;16.714;2023-09-19T12:14:34;8.43;;;1.40;;
18174;SDS011;9212;50.894;16.714;2023-09-19T12:17:01;0.77;;;0.77;;
18174;SDS011;9212;50.894;16.714;2023-09-19T12:19:29;1.00;;;1.00;;
18174;SDS011;9212;50.894;16.714;2023-09-19T12:21:57;5.10;;;1.17;;
18174;SDS011;9212;50.894;16.714;2023-09-19T12:24:26;2.38;;;1.20;;
18174;SDS011;9212;50.894;16.714;2023-09-19T12:26:56;3.50;;;1.25;;
18174;SDS011;9212;50.894;16.714;2023-09-19T12:29:27;3.45;;;1.00;;
18174;SDS011;9212;50.894;16.714;2023-09-19T12:31:55;2.28;;;1.38;;
18174;SDS011;9212;50.894;16.714;2023-09-19T12:34:24;2.70;;;1.25;;
18174;SDS011;9212;50.894;16.714;2023-09-19T12:37:09;3.17;;;1.35;;
18174;SDS011;9212;50.894;16.714;2023-09-19T12:39:48;10.93;;;1.20;;
18174;SDS011;9212;50.894;16.714;2023-09-19T12:42:19;8.95;;;1.55;;
18174;SDS011;9212;50.894;16.714;2023-09-19T12:44:49;1.95;;;1.23;;
18174;SDS011;9212;50.894;16.714;2023-09-19T12:47:20;4.72;;;1.30;;
18174;SDS011;9212;50.894;16.714;2023-09-19T12:52:42;1.75;;;0.98;;
18174;SDS011;9212;50.894;16.714;2023-09-19T12:55:23;2.33;;;1.27;;
18174;SDS011;9212;50.894;16.714;2023-09-19T12:58:11;4.05;;;1.48;;
18174;SDS011;9212;50.894;16.714;2023-09-19T13:00:40;4.70;;;1.73;;
18174;SDS011;9212;50.894;16.714;2023-09-19T13:03:13;2.58;;;1.38;;
18174;SDS011;9212;50.894;16.714;2023-09-19T13:05:53;1.75;;;1.30;;
18174;SDS011;9212;50.894;16.714;2023-09-19T13:08:23;7.97;;;1.77;;
18174;SDS011;9212;50.894;16.714;2023-09-19T13:11:08;3.40;;;0.90;;
18174;SDS011;9212;50.894;16.714;2023-09-19T13:13:42;3.30;;;1.10;;
18174;SDS011;9212;50.894;16.714;2023-09-19T13:16:11;2.15;;;1.20;;
18174;SDS011;9212;50.894;16.714;2023-09-19T13:18:45;2.63;;;1.10;;
18174;SDS011;9212;50.894;16.714;2023-09-19T13:21:15;3.72;;;1.10;;
18174;SDS011;9212;50.894;16.714;2023-09-19T13:23:51;1.67;;;0.90;;
18174;SDS011;9212;50.894;16.714;2023-09-19T13:26:21;3.97;;;1.10;;
18174;SDS011;9212;50.894;16.714;2023-09-19T13:28:47;8.45;;;1.95;;
18174;SDS011;9212;50.894;16.714;2023-09-19T13:31:15;2.45;;;0.90;;
18174;SDS011;9212;50.894;16.714;2023-09-19T13:33:43;2.17;;;1.10;;
18174;SDS011;9212;50.894;16.714;2023-09-19T13:36:12;2.28;;;0.98;;
18174;SDS011;9212;50.894;16.714;2023-09-19T13:38:39;1.73;;;0.93;;
18174;SDS011;9212;50.894;16.714;2023-09-19T13:41:09;0.95;;;0.95;;
18174;SDS011;9212;50.894;16.714;2023-09-19T13:43:38;2.47;;;1.10;;
18174;SDS011;9212;50.894;16.714;2023-09-19T13:46:05;3.22;;;0.95;;
18174;SDS011;9212;50.894;16.714;2023-09-19T13:48:37;2.42;;;1.02;;
18174;SDS011;9212;50.894;16.714;2023-09-19T13:51:04;1.13;;;1.00;;
18174;SDS011;9212;50.894;16.714;2023-09-19T13:53:31;3.22;;;1.40;;
18174;SDS011;9212;50.894;16.714;2023-09-19T13:55:59;1.20;;;1.00;;
18174;SDS011;9212;50.894;16.714;2023-09-19T13:58:26;1.95;;;0.90;;
18174;SDS011;9212;50.894;16.714;2023-09-19T14:00:57;2.20;;;1.17;;
18174;SDS011;9212;50.894;16.714;2023-09-19T14:03:25;1.35;;;1.10;;
18174;SDS011;9212;50.894;16.714;2023-09-19T14:05:54;2.35;;;0.82;;
18174;SDS011;9212;50.894;16.714;2023-09-19T14:08:21;4.43;;;1.33;;
18174;SDS011;9212;50.894;16.714;2023-09-19T14:10:49;2.75;;;1.25;;
18174;SDS011;9212;50.894;16.714;2023-09-19T14:13:16;3.15;;;1.20;;
18174;SDS011;9212;50.894;16.714;2023-09-19T14:15:45;5.60;;;1.60;;
18174;SDS011;9212;50.894;16.714;2023-09-19T14:18:14;6.63;;;1.23;;
18174;SDS011;9212;50.894;16.714;2023-09-19T14:20:41;1.90;;;1.55;;
18174;SDS011;9212;50.894;16.714;2023-09-19T14:23:09;4.43;;;1.58;;
18174;SDS011;9212;50.894;16.714;2023-09-19T14:25:37;6.85;;;1.45;;
18174;SDS011;9212;50.894;16.714;2023-09-19T14:28:04;2.63;;;1.30;;
18174;SDS011;9212;50.894;16.714;2023-09-19T14:30:33;1.90;;;1.30;;
18174;SDS011;9212;50.894;16.714;2023-09-19T14:33:02;4.32;;;1.27;;
18174;SDS011;9212;50.894;16.714;2023-09-19T14:35:31;1.45;;;1.33;;
18174;SDS011;9212;50.894;16.714;2023-09-19T14:37:58;1.85;;;1.67;;
18174;SDS011;9212;50.894;16.714;2023-09-19T14:40:26;2.58;;;1.70;;
18174;SDS011;9212;50.894;16.714;2023-09-19T14:42:53;4.90;;;1.60;;
18174;SDS011;9212;50.894;16.714;2023-09-19T14:45:20;2.45;;;1.30;;
18174;SDS011;9212;50.894;16.714;2023-09-19T14:47:48;7.15;;;1.40;;
18174;SDS011;9212;50.894;16.714;2023-09-19T14:50:17;7.55;;;1.33;;
18174;SDS011;9212;50.894;16.714;2023-09-19T14:52:46;5.97;;;1.48;;
18174;SDS011;9212;50.894;16.714;2023-09-19T14:55:14;5.43;;;1.38;;
18174;SDS011;9212;50.894;16.714;2023-09-19T14:57:41;8.27;;;2.20;;
18174;SDS011;9212;50.894;16.714;2023-09-19T15:00:11;9.18;;;1.52;;
18174;SDS011;9212;50.894;16.714;2023-09-19T15:02:39;16.13;;;2.08;;
18174;SDS011;9212;50.894;16.714;2023-09-19T15:05:06;4.97;;;1.67;;
18174;SDS011;9212;50.894;16.714;2023-09-19T15:07:34;2.50;;;1.35;;
18174;SDS011;9212;50.894;16.714;2023-09-19T15:10:04;5.63;;;1.42;;
18174;SDS011;9212;50.894;16.714;2023-09-19T15:12:34;5.15;;;1.20;;
18174;SDS011;9212;50.894;16.714;2023-09-19T15:15:02;1.63;;;1.30;;
18174;SDS011;9212;50.894;16.714;2023-09-19T15:17:32;1.95;;;1.10;;
18174;SDS011;9212;50.894;16.714;2023-09-19T15:19:59;3.80;;;1.40;;
18174;SDS011;9212;50.894;16.714;2023-09-19T15:22:27;4.43;;;1.48;;
18174;SDS011;9212;50.894;16.714;2023-09-19T15:24:54;3.42;;;1.65;;
18174;SDS011;9212;50.894;16.714;2023-09-19T15:27:23;6.97;;;2.25;;